Time;durP1;ratioP1;P1;durP2;ratioP2;P2;SDS_P1;SDS_P2;PMS_P1;PMS_P2;Temp;Humidity;BMP_temperature;BMP_pressure;BME280_temperature;BME280_humidity;BME280_pressure;Samples;Min_cycle;Max_cycle;Signal;HPM_P1;HPM_P2
2023/01/28 00:02:04;;;;;;;8.55;7.43;;;5.60;99.90;;;;;;4896536;29;20166;-75
2023/01/28 00:04:33;;;;;;;10.20;8.13;;;5.60;99.90;;;;;;4881444;29;20374;-74
2023/01/28 00:06:59;;;;;;;11.40;8.82;;;5.60;99.90;;;;;;4877931;29;20239;-74
2023/01/28 00:09:25;;;;;;;12.97;8.00;;;5.50;99.90;;;;;;4912706;29;20178;-74
2023/01/28 00:11:51;;;;;;;9.60;8.47;;;5.50;99.90;;;;;;4910092;29;20487;-74
2023/01/28 00:14:17;;;;;;;10.77;8.17;;;5.50;99.90;;;;;;4881180;29;20558;-73
2023/01/28 00:16:43;;;;;;;9.35;7.10;;;5.50;99.90;;;;;;4904916;29;20692;-74
2023/01/28 00:19:12;;;;;;;12.43;8.07;;;5.50;99.90;;;;;;4895895;29;20166;-74
2023/01/28 00:21:38;;;;;;;11.40;8.88;;;5.50;99.90;;;;;;4899876;29;20941;-73
2023/01/28 00:24:05;;;;;;;11.00;8.57;;;5.50;99.90;;;;;;4896035;29;20270;-74
2023/01/28 00:26:34;;;;;;;10.43;8.13;;;5.50;99.90;;;;;;4869539;29;20470;-73
2023/01/28 00:29:00;;;;;;;11.77;9.13;;;5.50;99.90;;;;;;4900548;29;20909;-73
2023/01/28 00:31:26;;;;;;;11.75;8.82;;;5.50;99.90;;;;;;4879364;29;20206;-74
2023/01/28 00:33:54;;;;;;;9.88;7.53;;;5.50;99.90;;;;;;4881055;29;20648;-74
2023/01/28 00:36:22;;;;;;;10.50;8.77;;;5.60;99.90;;;;;;4894799;29;20621;-74
2023/01/28 00:38:53;;;;;;;10.30;8.35;;;5.50;99.90;;;;;;4881411;29;20301;-75
2023/01/28 00:41:21;;;;;;;10.55;8.68;;;5.50;99.90;;;;;;4879558;29;20644;-75
2023/01/28 00:43:53;;;;;;;10.60;8.52;;;5.50;99.90;;;;;;4880100;29;20218;-77
2023/01/28 00:46:20;;;;;;;10.68;9.00;;;5.50;99.90;;;;;;4911468;29;20203;-75
2023/01/28 00:48:47;;;;;;;10.95;8.75;;;5.50;99.90;;;;;;4928506;29;20190;-75
2023/01/28 00:51:16;;;;;;;10.20;8.20;;;5.50;99.90;;;;;;4911957;29;20185;-75
2023/01/28 00:53:43;;;;;;;12.23;9.10;;;5.50;99.90;;;;;;4915611;29;20194;-75
2023/01/28 00:56:15;;;;;;;12.15;9.20;;;5.50;99.90;;;;;;4909378;29;20191;-75
2023/01/28 00:58:42;;;;;;;10.85;8.82;;;5.50;99.90;;;;;;4910876;29;20180;-76
2023/01/28 01:01:14;;;;;;;11.93;9.27;;;5.50;99.90;;;;;;4924635;29;20203;-75
2023/01/28 01:03:42;;;;;;;10.95;8.90;;;5.50;99.90;;;;;;4879470;29;20202;-75
2023/01/28 01:06:12;;;;;;;13.60;8.88;;;5.50;99.90;;;;;;4911107;29;20571;-75
2023/01/28 01:08:41;;;;;;;15.07;8.90;;;5.50;99.90;;;;;;4902473;29;20193;-75
2023/01/28 01:11:12;;;;;;;12.15;9.63;;;5.50;99.90;;;;;;4865267;29;20661;-75
2023/01/28 01:13:38;;;;;;;11.40;9.20;;;5.50;99.90;;;;;;4899863;29;20181;-75
2023/01/28 01:16:07;;;;;;;10.45;8.57;;;5.50;99.90;;;;;;4922975;29;20278;-75
2023/01/28 01:18:34;;;;;;;11.48;8.35;;;5.50;99.90;;;;;;4895022;29;20194;-75
2023/01/28 01:21:03;;;;;;;10.90;8.98;;;5.50;99.90;;;;;;4895067;29;20231;-76
2023/01/28 01:23:30;;;;;;;11.35;8.82;;;5.50;99.90;;;;;;4880182;29;20195;-75
2023/01/28 01:25:57;;;;;;;11.32;9.38;;;5.50;99.90;;;;;;4885278;29;20216;-75
2023/01/28 01:28:23;;;;;;;11.52;8.20;;;5.50;99.90;;;;;;4901844;29;20190;-74
2023/01/28 01:31:16;;;;;;;13.77;8.48;;;5.50;99.90;;;;;;4891885;29;20217;-75
2023/01/28 01:33:44;;;;;;;10.80;8.75;;;5.50;99.90;;;;;;4891050;29;20182;-75
2023/01/28 01:36:12;;;;;;;8.77;7.20;;;5.50;99.90;;;;;;4863878;29;20237;-75
2023/01/28 01:38:39;;;;;;;8.35;7.45;;;5.50;99.90;;;;;;4894664;29;20592;-75
2023/01/28 01:41:06;;;;;;;9.65;7.93;;;5.50;99.90;;;;;;4871938;29;20279;-75
2023/01/28 01:43:54;;;;;;;9.20;7.70;;;5.50;99.90;;;;;;4881977;29;20221;-74
2023/01/28 01:46:32;;;;;;;8.73;7.55;;;5.50;99.90;;;;;;4897779;29;20284;-75
2023/01/28 01:49:28;;;;;;;7.97;7.15;;;5.40;99.90;;;;;;4896834;29;20207;-75
2023/01/28 01:52:07;;;;;;;8.93;7.57;;;5.50;99.90;;;;;;4859914;29;20256;-74
2023/01/28 01:54:38;;;;;;;8.15;7.35;;;5.50;99.90;;;;;;4895313;29;20223;-75
2023/01/28 01:57:13;;;;;;;9.20;7.25;;;5.50;99.90;;;;;;4903548;29;20233;-75
2023/01/28 01:59:43;;;;;;;7.60;6.80;;;5.40;99.90;;;;;;4891696;29;20219;-74
2023/01/28 02:02:10;;;;;;;12.45;9.05;;;5.50;99.90;;;;;;4863762;29;20219;-74
2023/01/28 02:04:43;;;;;;;8.38;7.25;;;5.40;99.90;;;;;;4890712;29;20270;-74
2023/01/28 02:07:14;;;;;;;8.73;7.82;;;5.40;99.90;;;;;;4905844;29;20576;-75
2023/01/28 02:09:40;;;;;;;8.23;7.40;;;5.40;99.90;;;;;;4894478;29;20265;-75
2023/01/28 02:12:14;;;;;;;7.70;6.97;;;5.50;99.90;;;;;;4893834;29;20250;-74
2023/01/28 02:14:48;;;;;;;10.15;7.72;;;5.40;99.90;;;;;;4895003;29;20999;-75
2023/01/28 02:17:15;;;;;;;9.10;7.20;;;5.40;99.90;;;;;;4891907;29;20190;-74
2023/01/28 02:20:17;;;;;;;7.28;6.50;;;5.40;99.90;;;;;;4893855;29;20668;-75
2023/01/28 02:23:04;;;;;;;9.75;7.60;;;5.40;99.90;;;;;;4875929;29;20610;-75
2023/01/28 02:25:57;;;;;;;9.13;7.50;;;5.40;99.90;;;;;;4878248;29;20222;-75
2023/01/28 02:28:47;;;;;;;11.77;8.27;;;5.40;99.90;;;;;;4880190;29;20198;-74
2023/01/28 02:31:29;;;;;;;9.05;7.90;;;5.40;99.90;;;;;;4894473;29;20344;-74
2023/01/28 02:33:59;;;;;;;10.45;7.60;;;5.40;99.90;;;;;;4878353;29;20183;-74
2023/01/28 02:36:26;;;;;;;9.40;7.85;;;5.40;99.90;;;;;;4893305;29;20213;-74
2023/01/28 02:38:55;;;;;;;8.88;7.97;;;5.40;99.90;;;;;;4893553;29;20270;-74
2023/01/28 02:41:49;;;;;;;8.73;7.72;;;5.40;99.90;;;;;;4879382;29;20186;-75
2023/01/28 02:44:15;;;;;;;8.15;7.20;;;5.40;99.90;;;;;;4917957;29;20286;-74
2023/01/28 02:49:56;;;;;;;8.50;7.60;;;5.40;99.90;;;;;;4878817;29;20291;-74
2023/01/28 02:55:45;;;;;;;9.40;8.20;;;5.40;99.90;;;;;;4884816;29;20691;-74
2023/01/28 02:58:36;;;;;;;8.85;7.38;;;5.40;99.90;;;;;;4877989;29;20190;-74
2023/01/28 03:01:10;;;;;;;11.50;8.60;;;5.40;99.90;;;;;;4921459;29;20233;-74
2023/01/28 03:03:50;;;;;;;10.65;8.27;;;5.40;99.90;;;;;;4905135;29;20695;-75
2023/01/28 03:06:22;;;;;;;10.50;6.88;;;5.40;99.90;;;;;;4874516;29;20207;-75
2023/01/28 03:37:42;;;;;;;10.45;8.38;;;5.30;99.90;;;;;;4891225;29;20206;-74
2023/01/28 03:40:13;;;;;;;10.88;8.25;;;5.30;99.90;;;;;;4903259;29;20222;-75
2023/01/28 03:42:42;;;;;;;13.23;9.38;;;5.30;99.90;;;;;;4897295;29;20187;-75
2023/01/28 03:45:27;;;;;;;13.50;8.77;;;5.30;99.90;;;;;;4877544;29;20254;-74
2023/01/28 03:47:53;;;;;;;11.63;8.77;;;5.30;99.90;;;;;;4893353;29;20668;-75
2023/01/28 03:50:20;;;;;;;12.35;9.05;;;5.30;99.90;;;;;;4892925;29;20182;-75
2023/01/28 03:53:10;;;;;;;13.60;8.80;;;5.30;99.90;;;;;;4921815;29;20298;-75
2023/01/28 03:55:49;;;;;;;10.55;8.35;;;5.30;99.90;;;;;;4996708;23;20223;-76
2023/01/28 03:58:16;;;;;;;13.75;10.05;;;5.30;99.90;;;;;;4853176;29;20233;-76
2023/01/28 04:00:42;;;;;;;10.68;8.27;;;5.30;99.90;;;;;;4857022;29;20196;-76
2023/01/28 04:03:15;;;;;;;12.55;8.95;;;5.40;99.90;;;;;;4863003;29;20632;-76
2023/01/28 04:06:05;;;;;;;13.40;9.68;;;5.30;99.90;;;;;;4868286;29;20607;-77
2023/01/28 04:09:00;;;;;;;13.10;8.63;;;5.30;99.90;;;;;;4853388;29;20231;-77
2023/01/28 04:11:44;;;;;;;12.35;9.63;;;5.30;99.90;;;;;;4862912;29;20578;-76
2023/01/28 04:14:14;;;;;;;12.68;9.05;;;5.30;99.90;;;;;;4854117;29;20218;-77
2023/01/28 04:16:50;;;;;;;12.52;9.18;;;5.30;99.90;;;;;;4825249;29;20199;-75
2023/01/28 04:19:17;;;;;;;11.85;9.13;;;5.30;99.90;;;;;;4860850;29;20511;-76
2023/01/28 04:21:44;;;;;;;10.05;8.60;;;5.30;99.90;;;;;;4854343;29;20220;-76
2023/01/28 04:24:16;;;;;;;10.57;9.20;;;5.30;99.90;;;;;;4839332;29;20768;-76
2023/01/28 04:26:42;;;;;;;11.82;9.18;;;5.30;99.90;;;;;;4824652;29;20184;-76
2023/01/28 04:29:10;;;;;;;14.10;8.93;;;5.30;99.90;;;;;;4820942;29;20194;-76
2023/01/28 04:31:37;;;;;;;11.68;8.00;;;5.30;99.90;;;;;;4824598;29;20522;-76
2023/01/28 04:34:33;;;;;;;13.90;8.60;;;5.30;99.90;;;;;;4842536;29;20235;-76
2023/01/28 04:37:09;;;;;;;11.73;8.93;;;5.30;99.90;;;;;;4858291;29;20255;-76
2023/01/28 04:40:01;;;;;;;11.20;8.98;;;5.30;99.90;;;;;;4838801;29;20219;-76
2023/01/28 04:42:40;;;;;;;11.65;8.88;;;5.30;99.90;;;;;;4854297;29;20667;-76
2023/01/28 04:45:22;;;;;;;10.60;8.65;;;5.30;99.90;;;;;;4849479;29;20251;-77
2023/01/28 04:47:57;;;;;;;11.20;9.15;;;5.30;99.90;;;;;;4828181;29;20275;-76
2023/01/28 04:50:42;;;;;;;13.32;10.25;;;5.30;99.90;;;;;;4856384;29;20586;-76
2023/01/28 04:53:17;;;;;;;11.70;8.75;;;5.30;99.90;;;;;;4854776;29;20168;-77
2023/01/28 04:56:07;;;;;;;10.95;8.77;;;5.30;99.90;;;;;;4863717;29;20223;-76
2023/01/28 04:58:37;;;;;;;11.00;8.15;;;5.20;99.90;;;;;;4844414;29;20230;-76
2023/01/28 05:01:11;;;;;;;12.18;8.68;;;5.20;99.90;;;;;;4865603;29;20190;-76
2023/01/28 05:03:41;;;;;;;10.18;8.90;;;5.20;99.90;;;;;;4817798;29;20654;-76
2023/01/28 05:06:09;;;;;;;10.45;7.95;;;5.30;99.90;;;;;;4846119;29;20753;-77
2023/01/28 05:08:44;;;;;;;11.88;8.98;;;5.30;99.90;;;;;;4845670;29;20203;-76
2023/01/28 05:11:12;;;;;;;9.63;7.60;;;5.30;99.90;;;;;;4840613;29;20224;-76
2023/01/28 05:13:41;;;;;;;12.10;9.00;;;5.30;99.90;;;;;;4846539;29;20528;-77
2023/01/28 05:16:12;;;;;;;9.88;8.55;;;5.30;99.90;;;;;;4842106;29;20223;-76
2023/01/28 05:18:41;;;;;;;11.43;8.18;;;5.30;99.90;;;;;;4842396;29;20355;-77
2023/01/28 05:21:09;;;;;;;10.50;8.18;;;5.30;99.90;;;;;;4842180;29;20456;-76
2023/01/28 05:23:40;;;;;;;10.15;7.78;;;5.30;99.90;;;;;;4823880;29;20185;-76
2023/01/28 05:26:08;;;;;;;12.40;8.85;;;5.20;99.90;;;;;;4856009;29;20208;-77
2023/01/28 05:28:34;;;;;;;11.52;9.10;;;5.30;99.90;;;;;;4842382;29;20197;-77
2023/01/28 05:31:07;;;;;;;11.15;8.60;;;5.30;99.90;;;;;;4857252;29;20192;-77
2023/01/28 05:33:33;;;;;;;9.35;8.07;;;5.30;99.90;;;;;;4856479;29;20204;-76
2023/01/28 05:35:59;;;;;;;10.82;7.97;;;5.30;99.90;;;;;;4818344;29;20219;-76
2023/01/28 05:38:25;;;;;;;12.20;8.27;;;5.20;99.90;;;;;;4822405;29;20562;-76
2023/01/28 05:40:51;;;;;;;10.60;7.75;;;5.20;99.90;;;;;;4832397;29;20435;-77
2023/01/28 05:43:19;;;;;;;11.00;7.57;;;5.30;99.90;;;;;;4850226;29;20285;-77
2023/01/28 05:46:05;;;;;;;10.38;7.47;;;5.30;99.90;;;;;;4857161;29;20239;-76
2023/01/28 05:48:54;;;;;;;10.02;7.95;;;5.30;99.90;;;;;;4842777;29;20278;-76
2023/01/28 05:51:44;;;;;;;10.80;8.10;;;5.20;99.90;;;;;;4841771;29;20700;-77
2023/01/28 05:54:13;;;;;;;9.85;7.65;;;5.20;99.90;;;;;;4852836;29;20218;-77
2023/01/28 05:56:39;;;;;;;10.77;8.43;;;5.20;99.90;;;;;;4844076;29;20460;-76
2023/01/28 05:59:10;;;;;;;11.90;8.30;;;5.20;99.90;;;;;;4832916;29;20962;-76
2023/01/28 06:01:40;;;;;;;9.45;8.27;;;5.20;99.90;;;;;;4811969;29;20183;-76
2023/01/28 06:04:08;;;;;;;9.90;7.75;;;5.30;99.90;;;;;;4848406;29;20230;-77
2023/01/28 06:06:34;;;;;;;11.13;8.40;;;5.20;99.90;;;;;;4861084;29;20247;-77
2023/01/28 06:09:01;;;;;;;10.40;8.63;;;5.20;99.90;;;;;;4859265;29;20315;-76
2023/01/28 06:11:30;;;;;;;11.50;8.23;;;5.20;99.90;;;;;;4847335;29;20253;-76
2023/01/28 06:14:01;;;;;;;9.80;7.65;;;5.20;99.90;;;;;;4826900;29;20188;-76
2023/01/28 06:17:03;;;;;;;10.48;8.75;;;5.20;99.90;;;;;;4854007;29;20199;-76
2023/01/28 06:19:40;;;;;;;10.02;8.85;;;5.20;99.90;;;;;;4842469;29;20211;-76
2023/01/28 06:22:10;;;;;;;10.82;9.25;;;5.20;99.90;;;;;;4840953;29;20188;-76
2023/01/28 06:24:36;;;;;;;11.90;9.47;;;5.20;99.90;;;;;;4842309;29;20215;-76
2023/01/28 06:27:02;;;;;;;12.00;9.15;;;5.20;99.90;;;;;;4854293;29;20460;-76
2023/01/28 06:29:51;;;;;;;12.05;9.80;;;5.20;99.90;;;;;;4821463;29;20219;-77
2023/01/28 06:32:20;;;;;;;11.93;8.52;;;5.20;99.90;;;;;;4809713;29;20191;-77
2023/01/28 06:34:49;;;;;;;12.00;9.02;;;5.20;99.90;;;;;;4824321;29;20220;-77
2023/01/28 06:37:16;;;;;;;11.13;9.20;;;5.20;99.90;;;;;;4870843;29;20207;-77
2023/01/28 06:39:45;;;;;;;12.85;9.25;;;5.20;99.90;;;;;;4826767;29;20176;-77
2023/01/28 06:42:11;;;;;;;12.25;9.50;;;5.20;99.90;;;;;;4847411;29;20184;-77
2023/01/28 06:44:37;;;;;;;10.88;9.10;;;5.20;99.90;;;;;;4842206;29;20216;-77
2023/01/28 06:47:03;;;;;;;10.90;9.13;;;5.20;99.90;;;;;;4839997;29;20260;-77
2023/01/28 06:49:29;;;;;;;11.03;9.50;;;5.20;99.90;;;;;;4826750;29;20172;-77
2023/01/28 06:51:55;;;;;;;10.57;9.02;;;5.20;99.90;;;;;;4849166;29;20958;-77
2023/01/28 06:54:21;;;;;;;11.83;8.77;;;5.20;99.90;;;;;;4860424;29;20211;-75
2023/01/28 06:56:49;;;;;;;11.13;9.93;;;5.20;99.90;;;;;;4844988;29;20456;-76
2023/01/28 06:59:19;;;;;;;11.18;9.82;;;5.20;99.90;;;;;;4856060;29;20184;-76
2023/01/28 07:01:48;;;;;;;10.90;9.30;;;5.20;99.90;;;;;;4841914;29;20194;-75
2023/01/28 07:04:14;;;;;;;11.30;10.10;;;5.20;99.90;;;;;;4841826;29;20220;-76
2023/01/28 07:06:40;;;;;;;12.60;11.20;;;5.10;99.90;;;;;;4838729;29;20310;-75
2023/01/28 07:09:08;;;;;;;12.10;9.23;;;5.10;99.90;;;;;;4835780;29;20204;-75
2023/01/28 07:11:34;;;;;;;12.27;9.95;;;5.10;99.90;;;;;;4841477;29;20437;-75
2023/01/28 07:14:05;;;;;;;11.75;10.30;;;5.10;99.90;;;;;;4840807;29;20199;-75
2023/01/28 07:16:33;;;;;;;10.98;9.48;;;5.10;99.90;;;;;;4823521;29;20205;-75
2023/01/28 07:18:59;;;;;;;10.63;9.15;;;5.10;99.90;;;;;;4838549;29;20244;-75
2023/01/28 07:21:27;;;;;;;10.80;9.07;;;5.20;99.90;;;;;;4823200;29;20180;-75
2023/01/28 07:23:54;;;;;;;12.20;9.85;;;5.10;99.90;;;;;;4823479;29;20168;-75
2023/01/28 07:26:21;;;;;;;10.55;8.77;;;5.10;99.90;;;;;;4826044;29;20215;-75
2023/01/28 07:28:49;;;;;;;10.18;9.00;;;5.10;99.90;;;;;;4852972;29;20179;-75
2023/01/28 07:31:15;;;;;;;14.40;9.60;;;5.10;99.90;;;;;;4860518;29;20196;-75
2023/01/28 07:33:41;;;;;;;12.05;8.90;;;5.10;99.90;;;;;;4859372;29;20420;-75
2023/01/28 07:36:07;;;;;;;11.20;10.00;;;5.10;99.90;;;;;;4859475;29;20746;-75
2023/01/28 07:38:33;;;;;;;10.33;9.20;;;5.10;99.90;;;;;;4859582;29;20468;-75
2023/01/28 07:40:59;;;;;;;9.80;8.60;;;5.10;99.90;;;;;;4860683;29;20415;-75
2023/01/28 07:43:25;;;;;;;10.97;9.30;;;5.10;99.90;;;;;;4871448;29;21063;-75
2023/01/28 07:45:53;;;;;;;12.00;9.13;;;5.10;99.90;;;;;;4846422;29;20451;-75
2023/01/28 07:48:21;;;;;;;10.25;8.52;;;5.10;99.90;;;;;;4840932;29;20193;-75
2023/01/28 07:50:50;;;;;;;10.33;8.10;;;5.10;99.90;;;;;;4856282;29;20202;-75
2023/01/28 07:53:17;;;;;;;11.73;9.88;;;5.10;99.90;;;;;;4870897;29;20450;-75
2023/01/28 07:55:43;;;;;;;11.32;9.40;;;5.10;99.90;;;;;;4861840;29;20697;-75
2023/01/28 07:58:10;;;;;;;13.07;9.73;;;5.10;99.90;;;;;;4856143;29;20173;-76
2023/01/28 08:00:37;;;;;;;11.80;10.30;;;5.10;99.90;;;;;;4855522;29;20931;-77
2023/01/28 08:03:16;;;;;;;12.38;10.18;;;5.10;99.90;;;;;;4839682;29;20240;-77
2023/01/28 08:05:45;;;;;;;11.07;9.40;;;5.10;99.90;;;;;;4843596;29;20222;-77
2023/01/28 08:08:13;;;;;;;13.55;9.23;;;5.10;99.90;;;;;;4827581;29;20195;-78
2023/01/28 08:10:39;;;;;;;11.23;8.93;;;5.10;99.90;;;;;;4846928;29;20179;-76
2023/01/28 08:13:09;;;;;;;13.15;10.00;;;5.10;99.90;;;;;;4849513;29;20199;-76
2023/01/28 08:15:35;;;;;;;12.65;10.00;;;5.10;99.90;;;;;;4829880;29;20269;-77
2023/01/28 08:18:05;;;;;;;11.75;9.60;;;5.10;99.90;;;;;;4852583;29;20183;-77
2023/01/28 08:20:32;;;;;;;11.65;9.77;;;5.10;99.90;;;;;;4853805;29;20216;-77
2023/01/28 08:23:10;;;;;;;12.25;9.52;;;5.10;99.90;;;;;;4857631;29;20214;-77
2023/01/28 08:25:36;;;;;;;12.32;10.75;;;5.10;99.90;;;;;;4830051;29;20208;-77
2023/01/28 08:28:05;;;;;;;12.43;10.38;;;5.10;99.90;;;;;;4855982;29;20191;-77
2023/01/28 08:30:32;;;;;;;13.40;10.50;;;5.00;99.90;;;;;;4858946;29;20199;-77
2023/01/28 08:33:01;;;;;;;12.25;9.77;;;5.10;99.90;;;;;;4847743;29;20548;-77
2023/01/28 08:35:28;;;;;;;10.55;9.32;;;5.00;99.90;;;;;;4853268;29;20761;-77
2023/01/28 08:37:54;;;;;;;13.65;10.55;;;5.00;99.90;;;;;;4838338;29;20263;-76
2023/01/28 08:40:20;;;;;;;12.40;10.38;;;5.00;99.90;;;;;;4828279;29;20203;-75
2023/01/28 08:42:51;;;;;;;12.55;10.27;;;5.00;99.90;;;;;;4854146;29;20191;-77
2023/01/28 08:45:21;;;;;;;15.18;10.38;;;5.00;99.90;;;;;;4861001;29;20594;-76
2023/01/28 08:47:59;;;;;;;12.73;10.77;;;5.00;99.90;;;;;;4846309;29;20733;-75
2023/01/28 08:50:28;;;;;;;14.77;11.32;;;5.00;99.90;;;;;;4847893;29;20183;-80
2023/01/28 08:52:56;;;;;;;15.00;11.77;;;5.00;99.90;;;;;;4838369;29;20195;-76
2023/01/28 08:55:23;;;;;;;12.40;10.55;;;5.00;99.90;;;;;;4817779;29;20215;-74
2023/01/28 08:57:51;;;;;;;12.35;10.35;;;5.00;99.90;;;;;;4829073;29;20212;-76
2023/01/28 09:00:18;;;;;;;13.38;10.60;;;5.00;99.90;;;;;;4845389;29;20686;-74
2023/01/28 09:02:44;;;;;;;12.95;9.32;;;5.00;99.90;;;;;;4844589;29;20188;-75
2023/01/28 09:05:11;;;;;;;13.30;10.65;;;5.00;99.90;;;;;;4858032;29;20203;-75
2023/01/28 09:07:38;;;;;;;11.75;10.43;;;5.00;99.90;;;;;;4825829;29;20211;-76
2023/01/28 09:10:08;;;;;;;14.90;10.45;;;5.00;99.90;;;;;;4851833;29;20203;-77
2023/01/28 09:12:35;;;;;;;14.52;10.57;;;5.00;99.90;;;;;;4843456;29;20583;-76
2023/01/28 09:15:04;;;;;;;13.10;10.63;;;5.00;99.90;;;;;;4827926;29;20715;-74
2023/01/28 09:17:41;;;;;;;12.98;10.18;;;5.00;99.90;;;;;;4869143;29;20215;-75
2023/01/28 09:20:08;;;;;;;12.00;10.27;;;5.00;99.90;;;;;;4829406;29;20188;-74
2023/01/28 09:22:34;;;;;;;13.18;10.88;;;5.00;99.90;;;;;;4847656;29;20181;-75
2023/01/28 09:25:06;;;;;;;12.38;10.93;;;5.00;99.90;;;;;;4842126;29;20207;-73
2023/01/28 09:27:32;;;;;;;12.85;10.52;;;5.00;99.90;;;;;;4827491;29;20234;-73
2023/01/28 09:30:01;;;;;;;13.38;11.23;;;4.90;99.90;;;;;;4847768;29;20254;-71
2023/01/28 09:32:27;;;;;;;14.05;11.18;;;4.90;99.90;;;;;;4826387;29;20755;-73
2023/01/28 09:34:55;;;;;;;13.15;10.63;;;5.00;99.90;;;;;;4835653;29;20260;-72
2023/01/28 09:37:21;;;;;;;13.40;10.57;;;5.00;99.90;;;;;;4862200;29;20206;-73
2023/01/28 09:39:49;;;;;;;13.30;11.80;;;4.90;99.90;;;;;;4840233;29;20256;-72
2023/01/28 09:42:56;;;;;;;13.77;11.40;;;4.90;99.90;;;;;;4841780;29;20241;-73
2023/01/28 09:45:42;;;;;;;13.70;10.50;;;5.00;99.90;;;;;;4810325;29;20259;-74
2023/01/28 09:48:16;;;;;;;13.15;11.02;;;5.00;99.90;;;;;;4842509;29;20226;-75
2023/01/28 09:50:49;;;;;;;15.15;11.27;;;4.90;99.90;;;;;;4857293;29;20276;-76
2023/01/28 09:53:21;;;;;;;13.25;11.10;;;4.90;99.90;;;;;;4846990;29;20283;-75
2023/01/28 09:56:03;;;;;;;15.65;11.45;;;4.90;99.90;;;;;;4845558;29;20254;-74
2023/01/28 09:58:30;;;;;;;14.75;11.55;;;5.00;99.90;;;;;;4832235;29;20215;-73
2023/01/28 10:01:03;;;;;;;14.48;11.40;;;4.90;99.90;;;;;;4842805;29;20209;-76
2023/01/28 10:03:55;;;;;;;20.10;12.68;;;4.90;99.90;;;;;;4828799;29;20192;-78
2023/01/28 10:06:25;;;;;;;16.10;13.10;;;4.90;99.90;;;;;;4856451;29;20212;-81
2023/01/28 10:09:13;;;;;;;18.17;12.82;;;4.90;99.90;;;;;;4845270;29;20669;-78
2023/01/28 10:11:42;;;;;;;17.77;12.55;;;4.90;99.90;;;;;;4859491;29;20208;-79
2023/01/28 10:14:23;;;;;;;15.32;11.80;;;4.90;99.90;;;;;;4846322;29;20980;-77
2023/01/28 10:16:59;;;;;;;16.48;12.80;;;4.90;99.90;;;;;;4844763;29;20661;-77
2023/01/28 10:19:44;;;;;;;16.77;12.88;;;4.90;99.90;;;;;;4856606;29;20179;-76
2023/01/28 10:22:28;;;;;;;20.90;14.00;;;4.90;99.90;;;;;;4811573;29;20176;-76
2023/01/28 10:25:05;;;;;;;21.63;14.70;;;4.90;99.90;;;;;;4838682;29;20223;-76
2023/01/28 10:27:35;;;;;;;18.33;13.77;;;4.90;99.90;;;;;;4856187;29;20701;-79
2023/01/28 10:30:22;;;;;;;18.55;12.98;;;4.90;99.90;;;;;;4849333;29;20676;-78
2023/01/28 10:33:14;;;;;;;17.92;13.60;;;4.90;99.90;;;;;;4877310;29;20222;-79
2023/01/28 10:35:41;;;;;;;19.48;13.65;;;4.90;99.90;;;;;;4859486;29;20223;-78
2023/01/28 10:38:15;;;;;;;16.45;13.25;;;4.90;99.90;;;;;;4846964;29;20531;-79
2023/01/28 10:40:48;;;;;;;17.73;13.43;;;4.90;99.90;;;;;;4863696;29;20198;-79
2023/01/28 10:43:25;;;;;;;18.63;13.43;;;4.90;99.90;;;;;;4860639;29;20211;-77
2023/01/28 10:45:54;;;;;;;17.40;12.80;;;4.90;99.90;;;;;;4857990;29;20210;-77
2023/01/28 10:48:24;;;;;;;16.52;13.95;;;4.90;99.90;;;;;;4844327;29;20191;-76
2023/01/28 10:50:55;;;;;;;18.52;13.63;;;4.90;99.90;;;;;;4865630;29;20203;-76
2023/01/28 10:53:44;;;;;;;19.67;14.32;;;4.90;99.90;;;;;;4856793;29;20212;-74
2023/01/28 10:56:17;;;;;;;18.50;14.10;;;4.90;99.90;;;;;;4849982;29;20697;-78
2023/01/28 10:59:03;;;;;;;19.48;13.90;;;4.90;99.90;;;;;;4849421;29;20555;-77
2023/01/28 11:01:55;;;;;;;19.73;14.15;;;4.90;99.90;;;;;;4839115;29;20180;-77
2023/01/28 11:04:35;;;;;;;17.13;13.38;;;4.90;99.90;;;;;;4841481;29;20191;-78
2023/01/28 11:07:15;;;;;;;17.33;13.50;;;4.90;99.90;;;;;;4860792;29;20217;-77
2023/01/28 11:09:50;;;;;;;20.95;14.20;;;4.90;99.90;;;;;;4855014;29;20196;-78
2023/01/28 11:12:26;;;;;;;20.25;13.80;;;4.90;99.90;;;;;;4851151;29;20183;-78
2023/01/28 11:15:00;;;;;;;16.95;13.75;;;4.90;99.90;;;;;;4842251;29;20600;-78
2023/01/28 11:17:33;;;;;;;17.35;13.50;;;4.90;99.90;;;;;;4860592;29;20266;-78
2023/01/28 11:20:08;;;;;;;19.50;14.75;;;4.90;99.90;;;;;;4867358;29;20192;-78
2023/01/28 11:22:41;;;;;;;18.15;14.77;;;4.90;99.90;;;;;;4860123;29;20180;-78
2023/01/28 11:25:18;;;;;;;21.52;15.18;;;4.90;99.90;;;;;;4827348;29;20215;-78
2023/01/28 11:27:50;;;;;;;18.98;13.07;;;4.90;99.90;;;;;;4871184;29;20629;-78
2023/01/28 11:30:22;;;;;;;18.88;13.60;;;4.90;99.90;;;;;;4840423;29;20245;-78
2023/01/28 11:32:55;;;;;;;19.17;13.88;;;4.90;99.90;;;;;;4843021;29;20188;-78
2023/01/28 11:35:29;;;;;;;18.95;14.40;;;4.90;99.90;;;;;;4827438;29;20223;-78
2023/01/28 11:38:00;;;;;;;18.63;14.30;;;4.90;99.90;;;;;;4828064;29;20188;-78
2023/01/28 11:40:29;;;;;;;18.50;13.90;;;4.90;99.90;;;;;;4843767;29;20211;-78
2023/01/28 11:42:59;;;;;;;21.15;13.77;;;4.90;99.90;;;;;;4871981;29;20217;-77
2023/01/28 11:45:34;;;;;;;24.70;14.10;;;4.90;99.90;;;;;;4876883;29;21126;-79
2023/01/28 11:48:36;;;;;;;17.70;13.35;;;4.90;99.90;;;;;;4856422;29;20578;-78
2023/01/28 11:51:36;;;;;;;19.70;14.80;;;5.00;99.90;;;;;;4808191;29;20185;-76
2023/01/28 11:54:28;;;;;;;16.40;13.30;;;4.90;99.90;;;;;;4837199;29;20902;-76
2023/01/28 11:57:08;;;;;;;21.70;14.77;;;4.90;99.90;;;;;;4824125;29;20216;-78
2023/01/28 12:00:17;;;;;;;21.65;14.63;;;5.00;99.90;;;;;;4844820;29;20211;-77
2023/01/28 12:02:53;;;;;;;21.73;14.80;;;4.90;99.90;;;;;;4817322;29;20183;-76
2023/01/28 12:05:44;;;;;;;24.08;15.80;;;4.90;99.90;;;;;;4851002;29;20200;-76
2023/01/28 12:08:27;;;;;;;22.67;14.65;;;4.90;99.90;;;;;;4840721;29;20305;-76
2023/01/28 12:11:12;;;;;;;22.60;16.63;;;4.90;99.90;;;;;;4834764;29;20184;-76
2023/01/28 12:13:44;;;;;;;21.35;15.45;;;4.90;99.90;;;;;;4842309;29;20226;-75
2023/01/28 12:16:50;;;;;;;20.90;15.90;;;4.90;99.90;;;;;;4845278;29;20232;-78
2023/01/28 12:19:31;;;;;;;21.15;14.55;;;4.90;99.90;;;;;;4845518;29;20536;-78
2023/01/28 12:22:27;;;;;;;20.80;15.30;;;4.90;99.90;;;;;;4844663;29;20263;-77
2023/01/28 12:25:15;;;;;;;20.88;15.45;;;4.90;99.90;;;;;;4831044;29;20284;-75
2023/01/28 12:28:09;;;;;;;20.90;14.60;;;4.90;99.90;;;;;;4826514;29;20557;-76
2023/01/28 12:34:05;;;;;;;19.58;14.80;;;5.00;99.90;;;;;;4902080;29;20679;-74
2023/01/28 12:37:07;;;;;;;20.45;15.45;;;5.00;99.90;;;;;;4903451;29;20232;-73
2023/01/28 12:39:57;;;;;;;19.75;14.60;;;5.00;99.90;;;;;;4915817;29;20314;-73
2023/01/28 12:42:47;;;;;;;21.10;15.90;;;5.00;99.90;;;;;;4902247;29;20189;-72
2023/01/28 12:45:18;;;;;;;23.42;15.55;;;5.00;99.90;;;;;;4914121;29;20221;-71
2023/01/28 12:48:00;;;;;;;21.25;15.90;;;5.00;99.90;;;;;;4886772;29;20281;-71
2023/01/28 12:50:38;;;;;;;20.75;16.25;;;5.00;99.90;;;;;;4916238;29;20704;-71
2023/01/28 12:53:26;;;;;;;18.73;14.15;;;5.00;99.90;;;;;;4916794;29;20662;-71
2023/01/28 12:56:02;;;;;;;21.38;15.05;;;5.00;99.90;;;;;;4914157;29;20209;-71
2023/01/28 12:58:42;;;;;;;20.88;15.88;;;5.00;99.90;;;;;;4916982;29;20295;-71
2023/01/28 13:01:14;;;;;;;17.48;13.70;;;5.00;99.90;;;;;;4890941;29;20220;-72
2023/01/28 13:04:17;;;;;;;15.57;12.75;;;5.00;99.90;;;;;;4921262;29;20181;-71
2023/01/28 13:06:49;;;;;;;20.38;15.00;;;5.00;99.90;;;;;;4909876;29;20193;-71
2023/01/28 13:09:24;;;;;;;18.30;13.82;;;5.00;99.90;;;;;;4909593;29;20193;-71
2023/01/28 13:11:53;;;;;;;21.90;15.20;;;5.00;99.90;;;;;;4906538;29;20215;-71
2023/01/28 13:14:23;;;;;;;19.88;15.10;;;5.00;99.90;;;;;;4905718;29;20258;-71
2023/01/28 13:16:49;;;;;;;17.20;14.35;;;5.00;99.90;;;;;;4907888;29;20228;-71
2023/01/28 13:19:18;;;;;;;18.30;14.83;;;5.00;99.90;;;;;;4894905;29;20222;-71
2023/01/28 13:21:46;;;;;;;20.15;14.60;;;5.00;99.90;;;;;;4888603;29;20496;-71
2023/01/28 13:24:12;;;;;;;18.85;14.85;;;5.10;99.90;;;;;;4884701;29;20289;-71
2023/01/28 13:26:43;;;;;;;25.87;16.60;;;5.10;99.90;;;;;;4901228;29;20754;-72
2023/01/28 13:29:24;;;;;;;18.40;14.90;;;5.10;99.90;;;;;;4896247;29;20426;-71
2023/01/28 13:31:55;;;;;;;18.23;14.75;;;5.10;99.90;;;;;;4897898;29;20229;-71
2023/01/28 13:34:32;;;;;;;18.30;14.77;;;5.10;99.90;;;;;;4920738;29;20640;-71
2023/01/28 13:37:45;;;;;;;17.73;14.90;;;5.10;99.90;;;;;;4903893;29;20185;-71
2023/01/28 13:40:11;;;;;;;18.63;14.18;;;5.10;99.90;;;;;;4895857;29;20197;-71
2023/01/28 13:42:39;;;;;;;19.58;15.45;;;5.10;99.90;;;;;;4871838;29;20245;-71
2023/01/28 13:45:23;;;;;;;18.33;14.55;;;5.10;99.90;;;;;;4896613;29;20209;-71
2023/01/28 13:47:57;;;;;;;20.20;16.10;;;5.10;99.90;;;;;;4909661;29;20653;-71
2023/01/28 13:50:30;;;;;;;18.05;15.82;;;5.10;99.90;;;;;;4894644;29;20215;-72
2023/01/28 13:53:06;;;;;;;19.02;14.85;;;5.10;99.90;;;;;;4900338;29;20186;-72
2023/01/28 13:55:45;;;;;;;19.70;15.68;;;5.20;99.90;;;;;;4877486;29;20653;-71